Madison, Wisconsin
Current Conditions -  °F | °C
As of 5:53 AM on Monday 22 Dec 2014 (Local Time) from KMSN Reporting Station
Light Snow Light Snow  
Wind Chill: 25°   Ceiling: 800
Heat Index: 34°   Visibility: 5mi
Dew Point: 30°   Wind: 12mph
Humidity: 85%   Direction: 150°SSE
Pressure: 29.87"   Gusts: NA
Location:  43.07°N, 89.39°W
Report Text: KMSN 221153Z 15010KT 5SM -RASN BR OVC008 01/M01 A2987 RMK AO2 RAB51SNB51 CIG 008V013 SLP124 FIRST AUGMENTED OBS OF THE DAY P0000 60000 T00111011 10017 20011 56010
Loading
Personal Weather Stations






























Interactive Weather Map New forecast layout! Learn more

10-Day Weather Forecast

Advertisements
Track Severe Weather on mobile